createdAt,value
2023-05-25T00:01:25.180Z,3.47
2023-05-25T00:03:55.491Z,3.40
2023-05-25T00:06:23.709Z,3.50
2023-05-25T00:08:55.119Z,3.03
2023-05-25T00:11:23.577Z,3.60
2023-05-25T00:13:52.204Z,3.47
2023-05-25T00:16:20.653Z,3.80
2023-05-25T00:18:48.860Z,3.50
2023-05-25T00:21:16.391Z,3.60
2023-05-25T00:23:48.200Z,3.43
2023-05-25T00:26:16.305Z,4.47
2023-05-25T00:28:44.667Z,3.53
2023-05-25T00:31:13.042Z,4.20
2023-05-25T00:33:41.231Z,3.77
2023-05-25T00:36:09.636Z,3.50
2023-05-25T00:38:37.649Z,4.50
2023-05-25T00:41:06.216Z,4.20
2023-05-25T00:43:34.585Z,3.83
2023-05-25T00:46:03.223Z,3.83
2023-05-25T00:48:30.915Z,3.93
2023-05-25T00:51:00.062Z,3.77
2023-05-25T00:53:27.967Z,3.93
2023-05-25T00:55:58.107Z,3.70
2023-05-25T00:58:28.137Z,3.93
2023-05-25T01:00:56.306Z,4.80
2023-05-25T01:03:28.179Z,4.80
2023-05-25T01:05:56.147Z,4.83
2023-05-25T01:08:23.787Z,5.40
2023-05-25T01:10:51.823Z,5.63
2023-05-25T01:13:19.624Z,6.17
2023-05-25T01:15:47.277Z,6.33
2023-05-25T01:18:18.280Z,6.70
2023-05-25T01:21:20.473Z,6.73
2023-05-25T01:23:52.670Z,6.27
2023-05-25T01:26:19.849Z,5.50
2023-05-25T01:28:57.210Z,5.73
2023-05-25T01:31:24.828Z,6.27
2023-05-25T01:33:53.421Z,6.43
2023-05-25T01:36:21.231Z,6.13
2023-05-25T01:38:49.405Z,6.73
2023-05-25T01:41:17.221Z,7.00
2023-05-25T01:43:45.421Z,7.20
2023-05-25T01:46:36.594Z,6.60
2023-05-25T01:49:21.334Z,6.60
2023-05-25T01:52:04.251Z,6.20
2023-05-25T01:54:38.660Z,5.53
2023-05-25T01:57:09.368Z,5.77
2023-05-25T01:59:36.507Z,6.00
2023-05-25T02:02:06.804Z,5.47
2023-05-25T02:04:35.020Z,6.30
2023-05-25T02:07:04.977Z,6.10
2023-05-25T02:09:32.882Z,6.23
2023-05-25T02:12:01.242Z,5.50
2023-05-25T02:14:28.945Z,6.00
2023-05-25T02:16:57.790Z,6.17
2023-05-25T02:19:25.708Z,6.07
2023-05-25T02:21:53.614Z,5.73
2023-05-25T02:24:23.683Z,5.83
2023-05-25T02:26:51.002Z,6.23
2023-05-25T02:29:19.595Z,6.20
2023-05-25T02:31:47.798Z,6.00
2023-05-25T02:34:15.697Z,5.93
2023-05-25T02:36:45.162Z,6.90
2023-05-25T02:39:12.834Z,6.47
2023-05-25T02:41:40.540Z,6.37
2023-05-25T02:44:08.368Z,6.37
2023-05-25T02:46:36.472Z,6.77
2023-05-25T02:49:04.201Z,6.97
2023-05-25T02:51:32.512Z,6.43
2023-05-25T02:54:01.026Z,7.37
2023-05-25T02:56:28.840Z,5.87
2023-05-25T02:58:57.159Z,6.80
2023-05-25T03:01:25.627Z,6.43
2023-05-25T03:03:53.644Z,6.87
2023-05-25T03:06:22.984Z,6.23
2023-05-25T03:08:51.122Z,6.37
2023-05-25T03:11:19.269Z,6.90
2023-05-25T03:13:46.852Z,6.90
2023-05-25T03:16:14.616Z,6.53
2023-05-25T03:18:43.005Z,7.80
2023-05-25T03:21:10.977Z,6.90
2023-05-25T03:23:39.515Z,7.30
2023-05-25T03:26:07.732Z,7.60
2023-05-25T03:28:35.550Z,7.00
2023-05-25T03:31:03.599Z,6.67
2023-05-25T03:33:31.279Z,6.60
2023-05-25T03:35:59.421Z,6.10
2023-05-25T03:38:27.528Z,6.47
2023-05-25T03:40:55.029Z,5.70
2023-05-25T03:43:23.087Z,5.37
2023-05-25T03:45:51.261Z,5.50
2023-05-25T03:48:19.468Z,5.87
2023-05-25T03:50:47.014Z,5.93
2023-05-25T03:53:14.906Z,5.53
2023-05-25T03:55:43.384Z,5.40
2023-05-25T03:58:11.183Z,5.50
2023-05-25T04:00:39.852Z,5.60
2023-05-25T04:03:11.024Z,5.93
2023-05-25T04:05:38.797Z,5.90
2023-05-25T04:08:08.695Z,5.87
2023-05-25T04:10:36.477Z,5.77
2023-05-25T04:13:04.562Z,5.23
2023-05-25T04:15:34.686Z,5.93
2023-05-25T04:18:03.608Z,5.33
2023-05-25T04:20:31.947Z,5.17
2023-05-25T04:23:00.147Z,5.63
2023-05-25T04:25:29.648Z,4.90
2023-05-25T04:27:58.128Z,4.50
2023-05-25T04:30:26.205Z,5.10
2023-05-25T04:32:54.967Z,4.93
2023-05-25T04:35:23.662Z,4.80
2023-05-25T04:37:51.752Z,4.83
2023-05-25T04:40:21.542Z,5.20
2023-05-25T04:42:49.378Z,5.00
2023-05-25T04:45:18.020Z,5.00
2023-05-25T04:47:45.983Z,4.97
2023-05-25T04:50:13.428Z,4.80
2023-05-25T04:52:41.445Z,5.40
2023-05-25T04:55:10.385Z,4.90
2023-05-25T04:57:38.373Z,5.17
2023-05-25T05:00:11.035Z,4.63
2023-05-25T05:02:40.226Z,3.87
2023-05-25T05:05:09.448Z,4.40
2023-05-25T05:07:38.178Z,5.20
2023-05-25T05:10:08.873Z,4.37
2023-05-25T05:12:36.735Z,5.07
2023-05-25T05:15:05.818Z,4.33
2023-05-25T05:17:34.263Z,4.70
2023-05-25T05:20:02.687Z,4.60
2023-05-25T05:22:30.395Z,4.53
2023-05-25T05:24:58.677Z,3.80
2023-05-25T05:27:26.994Z,4.70
2023-05-25T05:29:54.969Z,4.30
2023-05-25T05:32:23.072Z,4.10
2023-05-25T05:34:50.583Z,4.10
2023-05-25T05:37:18.614Z,4.30
2023-05-25T05:39:46.234Z,4.37
2023-05-25T05:42:14.424Z,4.43
2023-05-25T05:44:42.137Z,4.33
2023-05-25T05:47:09.802Z,4.73
2023-05-25T05:49:39.379Z,4.63
2023-05-25T05:52:09.678Z,5.17
2023-05-25T05:54:37.866Z,5.80
2023-05-25T05:57:08.969Z,4.67
2023-05-25T05:59:37.175Z,5.40
2023-05-25T06:02:05.324Z,5.07
2023-05-25T06:04:33.434Z,5.40
2023-05-25T06:07:01.677Z,5.77
2023-05-25T06:09:29.753Z,5.10
2023-05-25T06:11:58.015Z,5.30
2023-05-25T06:14:28.274Z,4.90
2023-05-25T06:16:57.209Z,4.40
2023-05-25T06:19:25.297Z,5.13
2023-05-25T06:21:53.327Z,5.10
2023-05-25T06:24:20.970Z,4.40
2023-05-25T06:26:48.601Z,5.20
2023-05-25T06:29:17.229Z,5.80
2023-05-25T06:31:45.618Z,4.33
2023-05-25T06:34:13.388Z,4.17
2023-05-25T06:36:41.774Z,4.00
2023-05-25T06:39:09.716Z,6.83
2023-05-25T06:41:39.617Z,4.00
2023-05-25T06:44:08.198Z,3.43
2023-05-25T06:46:36.577Z,3.93
2023-05-25T06:49:04.500Z,3.70
2023-05-25T06:51:33.455Z,3.80
2023-05-25T06:54:01.668Z,4.00
2023-05-25T06:56:30.156Z,3.23
2023-05-25T06:58:58.202Z,3.40
2023-05-25T07:01:26.381Z,3.60
2023-05-25T07:03:54.384Z,3.63
2023-05-25T07:06:22.103Z,3.53
2023-05-25T07:08:50.108Z,2.90
2023-05-25T07:11:20.814Z,3.23
2023-05-25T07:13:48.682Z,3.63
2023-05-25T07:16:16.987Z,3.60
2023-05-25T07:18:45.253Z,3.50
2023-05-25T07:21:13.206Z,4.73
2023-05-25T07:23:41.358Z,2.97
2023-05-25T07:26:09.634Z,3.27
2023-05-25T07:28:37.900Z,3.20
2023-05-25T07:31:06.305Z,2.87
2023-05-25T07:33:34.027Z,3.17
2023-05-25T07:36:02.408Z,3.37
2023-05-25T07:38:30.249Z,3.10
2023-05-25T07:40:58.303Z,3.43
2023-05-25T07:43:26.497Z,3.33
2023-05-25T07:45:55.329Z,3.03
2023-05-25T07:48:23.372Z,3.00
2023-05-25T07:50:51.405Z,2.85
2023-05-25T07:53:20.231Z,3.08
2023-05-25T07:55:48.166Z,3.63
2023-05-25T07:58:16.449Z,3.53
2023-05-25T08:00:44.382Z,3.40
2023-05-25T08:03:12.410Z,3.00
2023-05-25T08:05:40.668Z,3.33
2023-05-25T08:08:08.408Z,3.22
2023-05-25T08:10:36.397Z,3.83
2023-05-25T08:13:06.194Z,3.88
2023-05-25T08:15:34.638Z,3.30
2023-05-25T08:18:04.556Z,3.30
2023-05-25T08:20:32.509Z,3.10
2023-05-25T08:23:01.948Z,3.60
2023-05-25T08:25:30.144Z,3.65
2023-05-25T08:27:58.488Z,3.10
2023-05-25T08:30:26.425Z,3.20
2023-05-25T08:32:54.182Z,3.65
2023-05-25T08:35:22.356Z,4.00
2023-05-25T08:37:50.706Z,3.80
2023-05-25T08:40:18.456Z,3.37
2023-05-25T08:42:46.647Z,3.30
2023-05-25T08:45:30.395Z,3.87
2023-05-25T08:50:29.319Z,4.00
2023-05-25T08:52:56.560Z,3.73
2023-05-25T08:55:24.610Z,4.07
2023-05-25T08:58:28.721Z,3.57
2023-05-25T09:00:57.543Z,3.97
2023-05-25T09:03:25.781Z,3.88
2023-05-25T09:05:54.092Z,3.93
2023-05-25T09:08:22.819Z,3.35
2023-05-25T09:10:50.401Z,3.28
2023-05-25T09:13:22.025Z,3.28
2023-05-25T09:15:50.284Z,3.33
2023-05-25T09:18:18.109Z,3.20
2023-05-25T09:20:47.434Z,3.47
2023-05-25T09:23:15.397Z,3.20
2023-05-25T09:25:43.099Z,3.40
2023-05-25T09:28:25.599Z,3.63
2023-05-25T09:30:54.177Z,3.47
2023-05-25T09:33:22.502Z,2.47
2023-05-25T09:35:50.701Z,2.40
2023-05-25T09:38:19.215Z,2.33
2023-05-25T09:40:47.354Z,2.30
2023-05-25T09:43:24.901Z,2.75
2023-05-25T09:46:00.598Z,3.05
2023-05-25T09:48:29.562Z,2.60
2023-05-25T09:50:59.275Z,2.00
2023-05-25T09:53:27.713Z,2.20
2023-05-25T09:55:55.287Z,2.50
2023-05-25T09:58:26.189Z,2.10
2023-05-25T10:00:55.136Z,1.90
2023-05-25T10:03:22.859Z,1.80
2023-05-25T10:05:49.658Z,1.60
2023-05-25T10:08:18.557Z,1.20
2023-05-25T10:10:47.293Z,1.52
2023-05-25T10:13:15.464Z,1.50
2023-05-25T10:15:43.781Z,1.33
2023-05-25T10:18:12.155Z,1.33
2023-05-25T10:20:39.382Z,1.27
2023-05-25T10:23:14.678Z,1.40
2023-05-25T10:25:45.037Z,1.30
2023-05-25T10:28:17.692Z,1.27
2023-05-25T10:30:46.128Z,1.02
2023-05-25T10:33:14.044Z,0.80
2023-05-25T10:35:56.279Z,0.93
2023-05-25T10:38:31.838Z,1.00
2023-05-25T10:40:59.821Z,1.08
2023-05-25T10:43:27.672Z,1.02
2023-05-25T10:45:56.216Z,1.00
2023-05-25T10:48:25.512Z,1.00
2023-05-25T10:50:53.066Z,1.00
2023-05-25T10:53:22.001Z,1.10
2023-05-25T10:56:01.394Z,0.80
2023-05-25T10:58:33.488Z,1.00
2023-05-25T11:01:23.688Z,1.20
2023-05-25T11:03:54.010Z,1.05
2023-05-25T11:06:22.282Z,0.90
2023-05-25T11:09:06.584Z,0.90
2023-05-25T11:11:42.856Z,0.88
2023-05-25T11:14:30.460Z,0.93
2023-05-25T11:17:14.828Z,0.93
2023-05-25T11:20:12.636Z,0.90
2023-05-25T11:22:40.580Z,0.82
2023-05-25T11:25:37.076Z,0.90
2023-05-25T11:28:08.906Z,0.75
2023-05-25T11:30:37.509Z,1.25
2023-05-25T11:33:07.743Z,0.80
2023-05-25T11:35:38.489Z,0.93
2023-05-25T11:38:09.951Z,0.80
2023-05-25T11:40:44.644Z,1.00
2023-05-25T11:43:12.179Z,0.93
2023-05-25T11:45:40.338Z,0.88
2023-05-25T11:48:13.979Z,1.10
2023-05-25T11:50:42.471Z,0.90
2023-05-25T11:53:11.403Z,1.00
2023-05-25T11:55:41.193Z,1.00
2023-05-25T11:58:09.428Z,0.90
2023-05-25T12:00:38.066Z,0.65
2023-05-25T12:03:05.834Z,0.85
2023-05-25T12:05:39.696Z,0.90
2023-05-25T12:08:07.404Z,1.00
2023-05-25T12:10:34.956Z,0.90
2023-05-25T12:13:02.568Z,0.85
2023-05-25T12:15:30.505Z,0.90
2023-05-25T12:17:58.686Z,0.98
2023-05-25T12:20:26.776Z,0.80
2023-05-25T12:22:54.862Z,0.90
2023-05-25T12:25:22.732Z,1.00
2023-05-25T12:27:50.678Z,0.63
2023-05-25T12:30:18.890Z,1.17
2023-05-25T12:33:02.661Z,0.88
2023-05-25T12:35:32.497Z,0.90
2023-05-25T12:38:17.932Z,1.10
2023-05-25T12:40:45.574Z,1.10
2023-05-25T12:43:14.222Z,1.00
2023-05-25T12:45:43.400Z,0.90
2023-05-25T12:48:11.930Z,1.10
2023-05-25T12:50:39.675Z,1.05
2023-05-25T12:53:07.710Z,0.90
2023-05-25T12:55:36.347Z,1.13
2023-05-25T12:58:05.944Z,1.17
2023-05-25T13:00:38.069Z,1.10
2023-05-25T13:03:09.151Z,1.02
2023-05-25T13:05:37.662Z,1.20
2023-05-25T13:08:05.308Z,1.20
2023-05-25T13:10:33.272Z,1.00
2023-05-25T13:13:01.473Z,1.30
2023-05-25T13:15:32.799Z,1.17
2023-05-25T13:18:00.667Z,1.15
2023-05-25T13:20:32.616Z,1.20
2023-05-25T13:23:00.682Z,0.90
2023-05-25T13:25:28.777Z,1.13
2023-05-25T13:27:58.300Z,1.50
2023-05-25T13:30:25.875Z,1.40
2023-05-25T13:32:59.609Z,1.27
2023-05-25T13:35:46.345Z,1.50
2023-05-25T13:38:16.607Z,1.70
2023-05-25T13:40:45.624Z,1.42
2023-05-25T13:43:14.028Z,1.50
2023-05-25T13:45:41.995Z,1.35
2023-05-25T13:48:10.113Z,1.80
2023-05-25T13:50:38.054Z,1.45
2023-05-25T13:53:06.149Z,2.13
2023-05-25T13:55:35.646Z,1.75
2023-05-25T13:58:05.780Z,1.63
2023-05-25T14:00:33.713Z,1.70
2023-05-25T14:03:00.915Z,1.70
2023-05-25T14:05:28.891Z,1.60
2023-05-25T14:07:56.808Z,1.60
2023-05-25T14:10:24.907Z,1.70
2023-05-25T14:12:53.091Z,1.70
2023-05-25T14:15:20.960Z,2.10
2023-05-25T14:17:48.908Z,1.90
2023-05-25T14:20:21.247Z,1.80
2023-05-25T14:22:49.339Z,1.92
2023-05-25T14:25:18.056Z,2.00
2023-05-25T14:27:45.930Z,1.80
2023-05-25T14:30:14.485Z,1.90
2023-05-25T14:32:42.893Z,2.03
2023-05-25T14:35:11.494Z,1.95
2023-05-25T14:37:39.375Z,1.90
2023-05-25T14:40:10.921Z,2.40
2023-05-25T14:42:38.907Z,2.20
2023-05-25T14:45:11.609Z,1.88
2023-05-25T14:47:40.816Z,1.90
2023-05-25T14:50:10.650Z,2.10
2023-05-25T14:52:38.773Z,1.70
2023-05-25T14:55:09.124Z,1.88
2023-05-25T14:57:37.073Z,2.10
2023-05-25T15:00:06.002Z,2.10
2023-05-25T15:02:34.492Z,1.70
2023-05-25T15:05:02.512Z,1.95
2023-05-25T15:07:30.127Z,2.30
2023-05-25T15:09:58.440Z,2.00
2023-05-25T15:12:26.641Z,1.60
2023-05-25T15:14:54.214Z,2.00
2023-05-25T15:17:23.491Z,1.95
2023-05-25T15:19:51.327Z,1.80
2023-05-25T15:22:19.737Z,2.40
2023-05-25T15:24:47.814Z,2.00
2023-05-25T15:27:15.907Z,1.75
2023-05-25T15:29:43.533Z,2.65
2023-05-25T15:32:13.368Z,3.10
2023-05-25T15:34:41.702Z,2.35
2023-05-25T15:37:11.209Z,2.20
2023-05-25T15:39:39.857Z,1.88
2023-05-25T15:42:07.678Z,1.92
2023-05-25T15:44:35.800Z,1.90
2023-05-25T15:47:03.434Z,2.17
2023-05-25T15:49:32.153Z,2.10
2023-05-25T15:51:59.691Z,1.92
2023-05-25T15:54:27.803Z,1.88
2023-05-25T15:56:56.086Z,2.25
2023-05-25T15:59:24.409Z,2.08
2023-05-25T16:01:52.652Z,1.90
2023-05-25T16:04:20.946Z,1.90
2023-05-25T16:06:48.799Z,2.28
2023-05-25T16:09:16.972Z,1.80
2023-05-25T16:11:45.629Z,1.65
2023-05-25T16:14:13.243Z,1.77
2023-05-25T16:16:41.353Z,2.00
2023-05-25T16:19:10.500Z,1.80
2023-05-25T16:21:40.434Z,1.67
2023-05-25T16:24:10.580Z,1.75
2023-05-25T16:26:38.126Z,1.95
2023-05-25T16:29:06.238Z,2.10
2023-05-25T16:31:34.777Z,1.75
2023-05-25T16:34:03.106Z,2.20
2023-05-25T16:36:31.543Z,2.10
2023-05-25T16:38:59.720Z,1.85
2023-05-25T16:41:27.675Z,2.30
2023-05-25T16:43:55.325Z,2.20
2023-05-25T16:46:25.173Z,2.03
2023-05-25T16:48:53.038Z,2.30
2023-05-25T16:51:20.733Z,2.53
2023-05-25T16:53:48.450Z,2.13
2023-05-25T16:56:16.623Z,2.10
2023-05-25T16:58:44.316Z,2.28
2023-05-25T17:01:12.134Z,2.20
2023-05-25T17:03:40.322Z,1.75
2023-05-25T17:06:09.478Z,1.95
2023-05-25T17:08:37.586Z,2.03
2023-05-25T17:11:05.926Z,2.10
2023-05-25T17:13:34.015Z,2.33
2023-05-25T17:16:02.061Z,2.05
2023-05-25T17:18:30.142Z,2.20
2023-05-25T17:20:58.251Z,2.28
2023-05-25T17:23:26.415Z,2.10
2023-05-25T17:25:54.855Z,2.30
2023-05-25T17:28:22.713Z,2.05
2023-05-25T17:30:50.611Z,2.20
2023-05-25T17:33:18.805Z,2.72
2023-05-25T17:35:46.914Z,2.30
2023-05-25T17:38:15.373Z,2.75
2023-05-25T17:40:43.967Z,2.72
2023-05-25T17:43:11.690Z,2.83
2023-05-25T17:45:39.643Z,3.22
2023-05-25T17:48:07.653Z,3.50
2023-05-25T17:50:35.462Z,3.08
2023-05-25T17:53:02.928Z,3.00
2023-05-25T17:55:30.883Z,2.85
2023-05-25T17:57:59.184Z,2.90
2023-05-25T18:00:27.647Z,2.72
2023-05-25T18:02:55.849Z,2.63
2023-05-25T18:05:23.906Z,2.88
2023-05-25T18:07:51.412Z,2.78
2023-05-25T18:10:22.661Z,3.22
2023-05-25T18:12:52.295Z,3.30
2023-05-25T18:15:20.529Z,3.45
2023-05-25T18:17:48.317Z,3.50
2023-05-25T18:20:17.111Z,3.38
2023-05-25T18:22:45.060Z,3.67
2023-05-25T18:25:13.214Z,3.78
2023-05-25T18:27:41.185Z,3.85
2023-05-25T18:30:12.137Z,3.10
2023-05-25T18:32:40.210Z,3.13
2023-05-25T18:35:09.534Z,3.33
2023-05-25T18:37:37.672Z,3.70
2023-05-25T18:40:07.421Z,4.40
2023-05-25T18:42:35.628Z,4.05
2023-05-25T18:45:03.649Z,4.10
2023-05-25T18:47:31.504Z,4.30
2023-05-25T18:49:59.069Z,3.80
2023-05-25T18:52:26.649Z,4.63
2023-05-25T18:54:54.524Z,4.83
2023-05-25T18:57:22.098Z,4.30
2023-05-25T18:59:50.551Z,4.43
2023-05-25T19:02:19.018Z,4.77
2023-05-25T19:04:47.529Z,4.78
2023-05-25T19:07:15.567Z,5.27
2023-05-25T19:09:43.410Z,5.30
2023-05-25T19:12:11.053Z,4.93
2023-05-25T19:14:39.184Z,5.87
2023-05-25T19:17:06.781Z,5.70
2023-05-25T19:19:34.824Z,5.40
2023-05-25T19:22:02.422Z,5.70
2023-05-25T19:24:30.238Z,6.00
2023-05-25T19:26:58.878Z,5.83
2023-05-25T19:29:26.421Z,5.43
2023-05-25T19:31:54.799Z,6.20
2023-05-25T19:34:22.514Z,6.10
2023-05-25T19:36:59.684Z,5.50
2023-05-25T19:39:32.406Z,5.50
2023-05-25T19:42:01.756Z,6.20
2023-05-25T19:44:29.579Z,6.27
2023-05-25T19:46:57.581Z,7.40
2023-05-25T19:49:25.560Z,6.70
2023-05-25T19:51:53.757Z,6.57
2023-05-25T19:54:21.224Z,6.33
2023-05-25T19:56:48.960Z,6.03
2023-05-25T19:59:17.605Z,5.90
2023-05-25T20:01:45.867Z,6.07
2023-05-25T20:04:14.111Z,5.87
2023-05-25T20:06:42.357Z,5.90
2023-05-25T20:09:12.598Z,6.80
2023-05-25T20:11:40.481Z,5.87
2023-05-25T20:14:08.504Z,6.07
2023-05-25T20:16:36.448Z,6.40
2023-05-25T20:19:07.534Z,6.90
2023-05-25T20:21:35.727Z,6.90
2023-05-25T20:24:03.520Z,7.03
2023-05-25T20:26:31.149Z,6.90
2023-05-25T20:28:59.604Z,7.43
2023-05-25T20:31:27.906Z,6.47
2023-05-25T20:33:59.798Z,6.80
2023-05-25T20:36:27.762Z,7.10
2023-05-25T20:38:55.892Z,7.23
2023-05-25T20:41:24.411Z,6.57
2023-05-25T20:43:52.468Z,7.43
2023-05-25T20:46:20.548Z,7.93
2023-05-25T20:48:48.528Z,8.00
2023-05-25T20:51:16.184Z,7.70
2023-05-25T20:53:44.192Z,7.27
2023-05-25T20:56:11.996Z,7.87
2023-05-25T20:58:40.963Z,7.70
2023-05-25T21:01:08.896Z,7.97
2023-05-25T21:03:36.786Z,8.33
2023-05-25T21:06:05.221Z,7.90
2023-05-25T21:08:32.906Z,8.23
2023-05-25T21:11:00.891Z,7.93
2023-05-25T21:13:28.932Z,7.50
2023-05-25T21:15:56.788Z,8.40
2023-05-25T21:18:24.894Z,8.03
2023-05-25T21:20:52.795Z,8.00
2023-05-25T21:23:20.754Z,7.47
2023-05-25T21:25:49.455Z,7.63
2023-05-25T21:28:36.751Z,8.13
2023-05-25T21:31:04.825Z,8.63
2023-05-25T21:33:35.867Z,9.30
2023-05-25T21:36:03.953Z,8.77
2023-05-25T21:38:31.580Z,9.60
2023-05-25T21:40:59.058Z,9.23
2023-05-25T21:43:49.166Z,8.77
2023-05-25T21:46:17.653Z,9.27
2023-05-25T21:48:48.084Z,9.90
2023-05-25T21:51:17.124Z,8.90
2023-05-25T21:53:45.459Z,10.20
2023-05-25T21:56:16.989Z,9.00
2023-05-25T22:16:49.786Z,10.57
2023-05-25T22:22:06.985Z,10.40
2023-05-25T22:27:27.300Z,11.70
